sensor_id;sensor_type;location;lat;lon;timestamp;P1;durP1;ratioP1;P2;durP2;ratioP2
49217;SDS011;35045;51.194;7.268;2023-05-10T00:01:50;4.50;;;1.50;;
49217;SDS011;35045;51.194;7.268;2023-05-10T00:04:16;2.88;;;1.20;;
49217;SDS011;35045;51.194;7.268;2023-05-10T00:06:42;3.33;;;1.33;;
49217;SDS011;35045;51.194;7.268;2023-05-10T00:09:08;4.85;;;2.28;;
49217;SDS011;35045;51.194;7.268;2023-05-10T00:11:34;5.63;;;2.70;;
49217;SDS011;35045;51.194;7.268;2023-05-10T00:14:01;4.93;;;2.50;;
49217;SDS011;35045;51.194;7.268;2023-05-10T00:16:27;4.90;;;2.47;;
49217;SDS011;35045;51.194;7.268;2023-05-10T00:18:53;5.57;;;2.83;;
49217;SDS011;35045;51.194;7.268;2023-05-10T00:21:19;5.80;;;3.15;;
49217;SDS011;35045;51.194;7.268;2023-05-10T00:23:45;6.28;;;3.22;;
49217;SDS011;35045;51.194;7.268;2023-05-10T00:26:11;9.98;;;3.97;;
49217;SDS011;35045;51.194;7.268;2023-05-10T00:28:37;6.15;;;3.33;;
49217;SDS011;35045;51.194;7.268;2023-05-10T00:31:03;6.15;;;3.38;;
49217;SDS011;35045;51.194;7.268;2023-05-10T00:33:30;8.00;;;3.50;;
49217;SDS011;35045;51.194;7.268;2023-05-10T00:35:56;6.75;;;3.35;;
49217;SDS011;35045;51.194;7.268;2023-05-10T00:38:22;7.10;;;3.40;;
49217;SDS011;35045;51.194;7.268;2023-05-10T00:40:48;6.18;;;3.47;;
49217;SDS011;35045;51.194;7.268;2023-05-10T00:43:14;6.78;;;3.38;;
49217;SDS011;35045;51.194;7.268;2023-05-10T00:45:40;6.35;;;3.35;;
49217;SDS011;35045;51.194;7.268;2023-05-10T00:48:07;7.15;;;3.75;;
49217;SDS011;35045;51.194;7.268;2023-05-10T00:50:34;6.00;;;3.30;;
49217;SDS011;35045;51.194;7.268;2023-05-10T00:53:00;5.88;;;3.40;;
49217;SDS011;35045;51.194;7.268;2023-05-10T00:55:27;6.53;;;3.40;;
49217;SDS011;35045;51.194;7.268;2023-05-10T00:57:54;7.20;;;3.67;;
49217;SDS011;35045;51.194;7.268;2023-05-10T01:00:21;6.45;;;3.72;;
49217;SDS011;35045;51.194;7.268;2023-05-10T01:02:47;6.35;;;3.92;;
49217;SDS011;35045;51.194;7.268;2023-05-10T01:05:15;7.05;;;4.03;;
49217;SDS011;35045;51.194;7.268;2023-05-10T01:07:41;6.55;;;3.67;;
49217;SDS011;35045;51.194;7.268;2023-05-10T01:10:07;6.45;;;3.80;;
49217;SDS011;35045;51.194;7.268;2023-05-10T01:12:35;6.28;;;3.63;;
49217;SDS011;35045;51.194;7.268;2023-05-10T01:15:07;5.97;;;3.17;;
49217;SDS011;35045;51.194;7.268;2023-05-10T01:17:37;7.00;;;3.00;;
49217;SDS011;35045;51.194;7.268;2023-05-10T01:20:05;7.70;;;3.17;;
49217;SDS011;35045;51.194;7.268;2023-05-10T01:32:07;7.10;;;4.13;;
49217;SDS011;35045;51.194;7.268;2023-05-10T01:35:05;7.40;;;4.40;;
49217;SDS011;35045;51.194;7.268;2023-05-10T01:37:40;7.15;;;4.35;;
49217;SDS011;35045;51.194;7.268;2023-05-10T01:43:30;7.45;;;4.40;;
49217;SDS011;35045;51.194;7.268;2023-05-10T01:46:03;8.02;;;4.68;;
49217;SDS011;35045;51.194;7.268;2023-05-10T01:48:37;7.35;;;4.65;;
49217;SDS011;35045;51.194;7.268;2023-05-10T01:51:13;7.45;;;4.40;;
49217;SDS011;35045;51.194;7.268;2023-05-10T01:53:47;8.05;;;4.18;;
49217;SDS011;35045;51.194;7.268;2023-05-10T01:56:14;7.95;;;4.88;;
49217;SDS011;35045;51.194;7.268;2023-05-10T01:58:42;8.45;;;4.60;;
49217;SDS011;35045;51.194;7.268;2023-05-10T02:01:11;8.10;;;4.47;;
49217;SDS011;35045;51.194;7.268;2023-05-10T02:03:39;8.45;;;4.28;;
49217;SDS011;35045;51.194;7.268;2023-05-10T02:06:06;7.40;;;3.83;;
49217;SDS011;35045;51.194;7.268;2023-05-10T02:08:34;6.93;;;3.70;;
49217;SDS011;35045;51.194;7.268;2023-05-10T02:11:02;6.97;;;3.80;;
49217;SDS011;35045;51.194;7.268;2023-05-10T02:13:31;7.78;;;4.50;;
49217;SDS011;35045;51.194;7.268;2023-05-10T02:16:01;7.95;;;5.10;;
49217;SDS011;35045;51.194;7.268;2023-05-10T02:18:28;7.57;;;4.50;;
49217;SDS011;35045;51.194;7.268;2023-05-10T02:20:57;8.95;;;5.53;;
49217;SDS011;35045;51.194;7.268;2023-05-10T02:23:24;9.43;;;5.10;;
49217;SDS011;35045;51.194;7.268;2023-05-10T02:25:51;9.10;;;5.90;;
49217;SDS011;35045;51.194;7.268;2023-05-10T02:28:20;8.38;;;5.45;;
49217;SDS011;35045;51.194;7.268;2023-05-10T02:30:48;8.77;;;5.97;;
49217;SDS011;35045;51.194;7.268;2023-05-10T02:33:16;9.05;;;5.78;;
49217;SDS011;35045;51.194;7.268;2023-05-10T02:35:42;8.98;;;5.65;;
49217;SDS011;35045;51.194;7.268;2023-05-10T02:38:09;8.95;;;6.10;;
49217;SDS011;35045;51.194;7.268;2023-05-10T02:40:37;7.05;;;4.53;;
49217;SDS011;35045;51.194;7.268;2023-05-10T02:43:06;6.88;;;4.35;;
49217;SDS011;35045;51.194;7.268;2023-05-10T02:45:35;6.97;;;3.75;;
49217;SDS011;35045;51.194;7.268;2023-05-10T02:48:01;7.50;;;4.20;;
49217;SDS011;35045;51.194;7.268;2023-05-10T02:50:28;6.72;;;4.13;;
49217;SDS011;35045;51.194;7.268;2023-05-10T02:52:59;7.30;;;4.45;;
49217;SDS011;35045;51.194;7.268;2023-05-10T02:55:29;7.47;;;5.00;;
49217;SDS011;35045;51.194;7.268;2023-05-10T02:58:00;7.40;;;4.93;;
49217;SDS011;35045;51.194;7.268;2023-05-10T03:00:27;7.97;;;5.68;;
49217;SDS011;35045;51.194;7.268;2023-05-10T03:02:54;10.25;;;6.90;;
49217;SDS011;35045;51.194;7.268;2023-05-10T03:05:20;11.23;;;8.13;;
49217;SDS011;35045;51.194;7.268;2023-05-10T03:07:47;13.77;;;10.18;;
49217;SDS011;35045;51.194;7.268;2023-05-10T03:10:13;13.25;;;9.13;;
49217;SDS011;35045;51.194;7.268;2023-05-10T03:12:45;12.20;;;8.50;;
49217;SDS011;35045;51.194;7.268;2023-05-10T03:15:25;13.05;;;8.65;;
49217;SDS011;35045;51.194;7.268;2023-05-10T03:17:55;10.65;;;6.82;;
49217;SDS011;35045;51.194;7.268;2023-05-10T03:20:41;9.40;;;6.78;;
49217;SDS011;35045;51.194;7.268;2023-05-10T03:25:44;9.52;;;6.25;;
49217;SDS011;35045;51.194;7.268;2023-05-10T03:28:13;9.75;;;6.78;;
49217;SDS011;35045;51.194;7.268;2023-05-10T03:30:41;9.73;;;7.00;;
49217;SDS011;35045;51.194;7.268;2023-05-10T03:33:09;10.57;;;7.20;;
49217;SDS011;35045;51.194;7.268;2023-05-10T03:35:36;9.38;;;5.75;;
49217;SDS011;35045;51.194;7.268;2023-05-10T03:38:02;10.38;;;5.53;;
49217;SDS011;35045;51.194;7.268;2023-05-10T03:40:28;10.02;;;6.40;;
49217;SDS011;35045;51.194;7.268;2023-05-10T03:42:57;9.25;;;5.93;;
49217;SDS011;35045;51.194;7.268;2023-05-10T03:45:24;9.75;;;6.10;;
49217;SDS011;35045;51.194;7.268;2023-05-10T03:47:50;8.95;;;5.68;;
49217;SDS011;35045;51.194;7.268;2023-05-10T03:50:16;7.95;;;5.32;;
49217;SDS011;35045;51.194;7.268;2023-05-10T03:52:43;8.93;;;5.43;;
49217;SDS011;35045;51.194;7.268;2023-05-10T03:55:10;10.07;;;5.85;;
49217;SDS011;35045;51.194;7.268;2023-05-10T03:57:36;9.77;;;6.00;;
49217;SDS011;35045;51.194;7.268;2023-05-10T04:00:02;10.25;;;6.55;;
49217;SDS011;35045;51.194;7.268;2023-05-10T04:02:29;9.50;;;6.80;;
49217;SDS011;35045;51.194;7.268;2023-05-10T04:04:56;11.85;;;7.18;;
49217;SDS011;35045;51.194;7.268;2023-05-10T04:07:22;10.75;;;7.07;;
49217;SDS011;35045;51.194;7.268;2023-05-10T04:09:48;11.98;;;6.78;;
49217;SDS011;35045;51.194;7.268;2023-05-10T04:12:14;11.27;;;8.48;;
49217;SDS011;35045;51.194;7.268;2023-05-10T04:14:40;13.52;;;9.60;;
49217;SDS011;35045;51.194;7.268;2023-05-10T04:17:06;15.75;;;11.57;;
49217;SDS011;35045;51.194;7.268;2023-05-10T04:19:33;17.15;;;13.27;;
49217;SDS011;35045;51.194;7.268;2023-05-10T04:21:59;18.15;;;12.85;;
49217;SDS011;35045;51.194;7.268;2023-05-10T04:24:25;18.52;;;13.27;;
49217;SDS011;35045;51.194;7.268;2023-05-10T04:26:51;17.00;;;12.65;;
49217;SDS011;35045;51.194;7.268;2023-05-10T04:29:19;17.23;;;12.95;;
49217;SDS011;35045;51.194;7.268;2023-05-10T04:31:46;16.42;;;11.48;;
49217;SDS011;35045;51.194;7.268;2023-05-10T04:34:12;17.65;;;12.90;;
49217;SDS011;35045;51.194;7.268;2023-05-10T04:36:38;17.67;;;12.00;;
49217;SDS011;35045;51.194;7.268;2023-05-10T04:39:04;14.25;;;9.25;;
49217;SDS011;35045;51.194;7.268;2023-05-10T04:41:30;15.07;;;9.40;;
49217;SDS011;35045;51.194;7.268;2023-05-10T04:43:56;14.35;;;9.23;;
49217;SDS011;35045;51.194;7.268;2023-05-10T04:46:23;12.88;;;9.32;;
49217;SDS011;35045;51.194;7.268;2023-05-10T04:48:49;13.98;;;9.55;;
49217;SDS011;35045;51.194;7.268;2023-05-10T04:51:15;14.23;;;9.50;;
49217;SDS011;35045;51.194;7.268;2023-05-10T04:53:41;16.15;;;10.32;;
49217;SDS011;35045;51.194;7.268;2023-05-10T04:56:09;16.60;;;12.43;;
49217;SDS011;35045;51.194;7.268;2023-05-10T04:58:35;19.95;;;13.38;;
49217;SDS011;35045;51.194;7.268;2023-05-10T05:01:04;17.88;;;12.52;;
49217;SDS011;35045;51.194;7.268;2023-05-10T05:03:35;14.25;;;10.82;;
49217;SDS011;35045;51.194;7.268;2023-05-10T05:06:02;15.68;;;10.90;;
49217;SDS011;35045;51.194;7.268;2023-05-10T05:08:28;17.48;;;12.52;;
49217;SDS011;35045;51.194;7.268;2023-05-10T05:10:55;15.45;;;11.63;;
49217;SDS011;35045;51.194;7.268;2023-05-10T05:13:21;18.15;;;12.00;;
49217;SDS011;35045;51.194;7.268;2023-05-10T05:15:47;20.25;;;13.48;;
49217;SDS011;35045;51.194;7.268;2023-05-10T05:18:13;18.25;;;13.65;;
49217;SDS011;35045;51.194;7.268;2023-05-10T05:20:39;24.05;;;14.25;;
49217;SDS011;35045;51.194;7.268;2023-05-10T05:23:06;19.33;;;14.13;;
49217;SDS011;35045;51.194;7.268;2023-05-10T05:25:32;19.77;;;15.10;;
49217;SDS011;35045;51.194;7.268;2023-05-10T05:27:58;19.48;;;15.00;;
49217;SDS011;35045;51.194;7.268;2023-05-10T05:30:24;20.45;;;15.70;;
49217;SDS011;35045;51.194;7.268;2023-05-10T05:32:50;21.30;;;15.38;;
49217;SDS011;35045;51.194;7.268;2023-05-10T05:35:16;19.08;;;14.10;;
49217;SDS011;35045;51.194;7.268;2023-05-10T05:37:43;14.98;;;11.00;;
49217;SDS011;35045;51.194;7.268;2023-05-10T05:40:12;18.17;;;13.85;;
49217;SDS011;35045;51.194;7.268;2023-05-10T05:42:38;20.42;;;15.30;;
49217;SDS011;35045;51.194;7.268;2023-05-10T05:45:05;27.27;;;17.75;;
49217;SDS011;35045;51.194;7.268;2023-05-10T05:47:32;27.92;;;20.13;;
49217;SDS011;35045;51.194;7.268;2023-05-10T05:49:58;29.17;;;20.60;;
49217;SDS011;35045;51.194;7.268;2023-05-10T05:52:24;30.35;;;20.65;;
49217;SDS011;35045;51.194;7.268;2023-05-10T05:54:50;29.75;;;20.83;;
49217;SDS011;35045;51.194;7.268;2023-05-10T05:57:16;28.63;;;21.17;;
49217;SDS011;35045;51.194;7.268;2023-05-10T05:59:42;33.45;;;22.15;;
49217;SDS011;35045;51.194;7.268;2023-05-10T06:02:09;33.35;;;22.25;;
49217;SDS011;35045;51.194;7.268;2023-05-10T06:04:36;31.50;;;21.98;;
49217;SDS011;35045;51.194;7.268;2023-05-10T06:07:02;30.30;;;20.23;;
49217;SDS011;35045;51.194;7.268;2023-05-10T06:09:28;29.75;;;22.42;;
49217;SDS011;35045;51.194;7.268;2023-05-10T06:11:54;30.65;;;22.30;;
49217;SDS011;35045;51.194;7.268;2023-05-10T06:14:21;30.60;;;20.83;;
49217;SDS011;35045;51.194;7.268;2023-05-10T06:16:47;33.03;;;22.10;;
49217;SDS011;35045;51.194;7.268;2023-05-10T06:19:13;28.05;;;21.15;;
49217;SDS011;35045;51.194;7.268;2023-05-10T06:21:39;31.63;;;21.15;;
49217;SDS011;35045;51.194;7.268;2023-05-10T06:24:05;29.98;;;20.65;;
49217;SDS011;35045;51.194;7.268;2023-05-10T06:26:32;29.98;;;21.33;;
49217;SDS011;35045;51.194;7.268;2023-05-10T06:28:58;30.00;;;19.98;;
49217;SDS011;35045;51.194;7.268;2023-05-10T06:31:25;26.83;;;20.25;;
49217;SDS011;35045;51.194;7.268;2023-05-10T06:33:51;26.05;;;19.35;;
49217;SDS011;35045;51.194;7.268;2023-05-10T06:36:18;25.40;;;19.80;;
49217;SDS011;35045;51.194;7.268;2023-05-10T06:38:44;26.27;;;19.63;;
49217;SDS011;35045;51.194;7.268;2023-05-10T06:41:10;25.63;;;19.73;;
49217;SDS011;35045;51.194;7.268;2023-05-10T06:43:37;24.90;;;19.13;;
49217;SDS011;35045;51.194;7.268;2023-05-10T06:46:06;26.98;;;18.58;;
49217;SDS011;35045;51.194;7.268;2023-05-10T06:48:33;24.98;;;19.35;;
49217;SDS011;35045;51.194;7.268;2023-05-10T06:50:59;24.95;;;18.27;;
49217;SDS011;35045;51.194;7.268;2023-05-10T06:53:25;25.23;;;18.10;;
49217;SDS011;35045;51.194;7.268;2023-05-10T06:55:51;23.67;;;17.98;;
49217;SDS011;35045;51.194;7.268;2023-05-10T06:58:18;23.75;;;17.42;;
49217;SDS011;35045;51.194;7.268;2023-05-10T07:00:44;22.65;;;17.48;;
49217;SDS011;35045;51.194;7.268;2023-05-10T07:03:10;21.58;;;17.40;;
49217;SDS011;35045;51.194;7.268;2023-05-10T07:05:37;21.88;;;18.05;;
49217;SDS011;35045;51.194;7.268;2023-05-10T07:08:03;23.60;;;17.70;;
49217;SDS011;35045;51.194;7.268;2023-05-10T07:10:29;26.13;;;17.55;;
49217;SDS011;35045;51.194;7.268;2023-05-10T07:12:55;24.95;;;18.35;;
49217;SDS011;35045;51.194;7.268;2023-05-10T07:15:22;24.55;;;17.73;;
49217;SDS011;35045;51.194;7.268;2023-05-10T07:17:48;26.23;;;18.02;;
49217;SDS011;35045;51.194;7.268;2023-05-10T07:20:14;26.08;;;18.08;;
49217;SDS011;35045;51.194;7.268;2023-05-10T07:22:40;22.45;;;17.13;;
49217;SDS011;35045;51.194;7.268;2023-05-10T07:25:07;26.88;;;18.15;;
49217;SDS011;35045;51.194;7.268;2023-05-10T07:27:33;25.92;;;17.58;;
49217;SDS011;35045;51.194;7.268;2023-05-10T07:30:00;24.13;;;16.90;;
49217;SDS011;35045;51.194;7.268;2023-05-10T07:32:26;21.70;;;16.58;;
49217;SDS011;35045;51.194;7.268;2023-05-10T07:34:52;21.40;;;16.65;;
49217;SDS011;35045;51.194;7.268;2023-05-10T07:37:18;23.00;;;16.30;;
49217;SDS011;35045;51.194;7.268;2023-05-10T07:39:44;21.95;;;15.35;;
49217;SDS011;35045;51.194;7.268;2023-05-10T07:42:10;23.25;;;15.60;;
49217;SDS011;35045;51.194;7.268;2023-05-10T07:44:37;18.77;;;14.38;;
49217;SDS011;35045;51.194;7.268;2023-05-10T07:47:03;20.58;;;14.85;;
49217;SDS011;35045;51.194;7.268;2023-05-10T07:49:29;19.80;;;14.40;;
49217;SDS011;35045;51.194;7.268;2023-05-10T07:51:55;16.88;;;12.73;;
49217;SDS011;35045;51.194;7.268;2023-05-10T07:54:21;18.02;;;11.88;;
49217;SDS011;35045;51.194;7.268;2023-05-10T07:56:47;20.63;;;13.02;;
49217;SDS011;35045;51.194;7.268;2023-05-10T07:59:16;20.33;;;12.45;;
49217;SDS011;35045;51.194;7.268;2023-05-10T08:01:43;19.83;;;13.63;;
49217;SDS011;35045;51.194;7.268;2023-05-10T08:04:10;29.10;;;15.02;;
49217;SDS011;35045;51.194;7.268;2023-05-10T08:06:37;26.15;;;15.32;;
49217;SDS011;35045;51.194;7.268;2023-05-10T08:09:03;27.75;;;15.80;;
49217;SDS011;35045;51.194;7.268;2023-05-10T08:11:29;17.95;;;13.85;;
49217;SDS011;35045;51.194;7.268;2023-05-10T08:13:55;19.50;;;15.13;;
49217;SDS011;35045;51.194;7.268;2023-05-10T08:16:21;18.08;;;13.05;;
49217;SDS011;35045;51.194;7.268;2023-05-10T08:18:47;16.52;;;10.80;;
49217;SDS011;35045;51.194;7.268;2023-05-10T08:21:14;14.90;;;10.90;;
49217;SDS011;35045;51.194;7.268;2023-05-10T08:23:41;16.08;;;11.43;;
49217;SDS011;35045;51.194;7.268;2023-05-10T08:26:09;18.50;;;11.60;;
49217;SDS011;35045;51.194;7.268;2023-05-10T08:28:36;18.83;;;13.18;;
49217;SDS011;35045;51.194;7.268;2023-05-10T08:31:02;20.05;;;13.30;;
49217;SDS011;35045;51.194;7.268;2023-05-10T08:33:28;19.48;;;13.85;;
49217;SDS011;35045;51.194;7.268;2023-05-10T08:35:54;21.60;;;15.00;;
49217;SDS011;35045;51.194;7.268;2023-05-10T08:38:20;23.15;;;15.02;;
49217;SDS011;35045;51.194;7.268;2023-05-10T08:40:46;23.85;;;16.52;;
49217;SDS011;35045;51.194;7.268;2023-05-10T08:43:14;21.88;;;14.25;;
49217;SDS011;35045;51.194;7.268;2023-05-10T08:45:42;22.17;;;14.90;;
49217;SDS011;35045;51.194;7.268;2023-05-10T08:48:10;23.58;;;14.68;;
49217;SDS011;35045;51.194;7.268;2023-05-10T08:50:38;21.83;;;14.63;;
49217;SDS011;35045;51.194;7.268;2023-05-10T08:53:12;21.08;;;15.18;;
49217;SDS011;35045;51.194;7.268;2023-05-10T08:55:39;21.50;;;14.50;;
49217;SDS011;35045;51.194;7.268;2023-05-10T08:58:07;20.13;;;13.60;;
49217;SDS011;35045;51.194;7.268;2023-05-10T09:00:35;21.23;;;14.63;;
49217;SDS011;35045;51.194;7.268;2023-05-10T09:03:03;21.27;;;14.10;;
49217;SDS011;35045;51.194;7.268;2023-05-10T09:05:31;19.00;;;14.52;;
49217;SDS011;35045;51.194;7.268;2023-05-10T09:07:57;19.98;;;15.20;;
49217;SDS011;35045;51.194;7.268;2023-05-10T09:10:26;22.73;;;15.48;;
49217;SDS011;35045;51.194;7.268;2023-05-10T09:12:53;21.10;;;15.60;;
49217;SDS011;35045;51.194;7.268;2023-05-10T09:15:22;23.20;;;15.95;;
49217;SDS011;35045;51.194;7.268;2023-05-10T09:17:49;22.60;;;16.27;;
49217;SDS011;35045;51.194;7.268;2023-05-10T09:20:15;21.23;;;14.85;;
49217;SDS011;35045;51.194;7.268;2023-05-10T09:22:43;20.52;;;14.20;;
49217;SDS011;35045;51.194;7.268;2023-05-10T09:25:10;24.52;;;15.02;;
49217;SDS011;35045;51.194;7.268;2023-05-10T09:27:39;24.08;;;15.82;;
49217;SDS011;35045;51.194;7.268;2023-05-10T09:30:06;19.88;;;15.43;;
49217;SDS011;35045;51.194;7.268;2023-05-10T09:32:43;20.38;;;14.65;;
49217;SDS011;35045;51.194;7.268;2023-05-10T09:35:11;20.88;;;14.05;;
49217;SDS011;35045;51.194;7.268;2023-05-10T09:37:46;18.80;;;14.30;;
49217;SDS011;35045;51.194;7.268;2023-05-10T09:40:14;15.07;;;11.40;;
49217;SDS011;35045;51.194;7.268;2023-05-10T09:42:42;18.35;;;11.85;;
49217;SDS011;35045;51.194;7.268;2023-05-10T09:45:19;17.40;;;11.07;;
49217;SDS011;35045;51.194;7.268;2023-05-10T09:47:46;18.20;;;12.45;;
49217;SDS011;35045;51.194;7.268;2023-05-10T09:50:13;19.80;;;13.60;;
49217;SDS011;35045;51.194;7.268;2023-05-10T09:52:46;19.38;;;13.45;;
49217;SDS011;35045;51.194;7.268;2023-05-10T09:55:17;18.70;;;13.10;;
49217;SDS011;35045;51.194;7.268;2023-05-10T09:57:46;20.23;;;13.05;;
49217;SDS011;35045;51.194;7.268;2023-05-10T10:00:19;18.08;;;12.25;;
49217;SDS011;35045;51.194;7.268;2023-05-10T10:02:47;21.08;;;12.80;;
49217;SDS011;35045;51.194;7.268;2023-05-10T10:05:19;15.63;;;10.88;;
49217;SDS011;35045;51.194;7.268;2023-05-10T10:07:46;16.33;;;11.75;;
49217;SDS011;35045;51.194;7.268;2023-05-10T10:10:14;16.60;;;11.27;;
49217;SDS011;35045;51.194;7.268;2023-05-10T10:12:41;15.75;;;10.20;;
49217;SDS011;35045;51.194;7.268;2023-05-10T10:15:08;17.17;;;10.00;;
49217;SDS011;35045;51.194;7.268;2023-05-10T10:17:35;15.32;;;10.07;;
49217;SDS011;35045;51.194;7.268;2023-05-10T10:20:03;17.75;;;10.73;;
49217;SDS011;35045;51.194;7.268;2023-05-10T10:22:30;17.00;;;11.32;;
49217;SDS011;35045;51.194;7.268;2023-05-10T10:24:56;21.20;;;13.10;;
49217;SDS011;35045;51.194;7.268;2023-05-10T10:30:16;25.77;;;16.70;;
49217;SDS011;35045;51.194;7.268;2023-05-10T10:35:52;28.05;;;19.33;;
49217;SDS011;35045;51.194;7.268;2023-05-10T10:38:19;27.40;;;19.17;;
49217;SDS011;35045;51.194;7.268;2023-05-10T10:40:46;28.77;;;19.13;;
49217;SDS011;35045;51.194;7.268;2023-05-10T10:43:25;28.42;;;18.63;;
49217;SDS011;35045;51.194;7.268;2023-05-10T10:51:38;30.67;;;20.50;;
49217;SDS011;35045;51.194;7.268;2023-05-10T10:54:11;26.67;;;18.98;;
49217;SDS011;35045;51.194;7.268;2023-05-10T10:56:37;33.30;;;19.92;;
49217;SDS011;35045;51.194;7.268;2023-05-10T10:59:03;30.15;;;20.15;;
49217;SDS011;35045;51.194;7.268;2023-05-10T11:01:33;27.27;;;19.23;;
49217;SDS011;35045;51.194;7.268;2023-05-10T11:06:30;26.48;;;18.65;;
49217;SDS011;35045;51.194;7.268;2023-05-10T11:09:09;28.75;;;19.20;;
49217;SDS011;35045;51.194;7.268;2023-05-10T11:11:50;26.40;;;18.00;;
49217;SDS011;35045;51.194;7.268;2023-05-10T11:14:19;24.58;;;17.63;;
49217;SDS011;35045;51.194;7.268;2023-05-10T11:16:47;26.08;;;17.95;;
49217;SDS011;35045;51.194;7.268;2023-05-10T11:19:13;26.92;;;18.45;;
49217;SDS011;35045;51.194;7.268;2023-05-10T11:22:23;27.40;;;17.75;;
49217;SDS011;35045;51.194;7.268;2023-05-10T11:24:30;26.67;;;17.70;;
49217;SDS011;35045;51.194;7.268;2023-05-10T11:26:56;23.33;;;16.25;;
49217;SDS011;35045;51.194;7.268;2023-05-10T11:29:22;23.80;;;16.52;;
49217;SDS011;35045;51.194;7.268;2023-05-10T11:31:49;25.75;;;15.73;;
49217;SDS011;35045;51.194;7.268;2023-05-10T11:34:28;23.90;;;16.65;;
49217;SDS011;35045;51.194;7.268;2023-05-10T11:36:56;24.00;;;15.60;;
49217;SDS011;35045;51.194;7.268;2023-05-10T11:39:29;23.52;;;15.18;;
49217;SDS011;35045;51.194;7.268;2023-05-10T11:41:56;22.42;;;15.55;;
49217;SDS011;35045;51.194;7.268;2023-05-10T11:44:24;21.83;;;15.15;;
49217;SDS011;35045;51.194;7.268;2023-05-10T11:46:57;22.83;;;14.88;;
49217;SDS011;35045;51.194;7.268;2023-05-10T11:49:27;22.67;;;15.73;;
49217;SDS011;35045;51.194;7.268;2023-05-10T11:51:53;21.90;;;13.93;;
49217;SDS011;35045;51.194;7.268;2023-05-10T11:54:32;21.45;;;14.43;;
49217;SDS011;35045;51.194;7.268;2023-05-10T11:57:00;20.65;;;13.55;;
49217;SDS011;35045;51.194;7.268;2023-05-10T11:59:26;23.45;;;14.15;;
49217;SDS011;35045;51.194;7.268;2023-05-10T12:01:52;21.73;;;14.68;;
49217;SDS011;35045;51.194;7.268;2023-05-10T12:04:19;21.85;;;14.45;;
49217;SDS011;35045;51.194;7.268;2023-05-10T12:06:45;18.50;;;12.98;;
49217;SDS011;35045;51.194;7.268;2023-05-10T12:09:12;23.48;;;13.60;;
49217;SDS011;35045;51.194;7.268;2023-05-10T12:11:40;21.15;;;14.13;;
49217;SDS011;35045;51.194;7.268;2023-05-10T12:14:08;18.95;;;13.80;;
49217;SDS011;35045;51.194;7.268;2023-05-10T12:16:35;20.10;;;13.88;;
49217;SDS011;35045;51.194;7.268;2023-05-10T12:19:01;20.00;;;12.75;;
49217;SDS011;35045;51.194;7.268;2023-05-10T12:21:28;19.70;;;12.85;;
49217;SDS011;35045;51.194;7.268;2023-05-10T12:23:59;20.23;;;13.45;;
49217;SDS011;35045;51.194;7.268;2023-05-10T12:26:27;20.40;;;13.73;;
49217;SDS011;35045;51.194;7.268;2023-05-10T12:28:54;19.88;;;13.93;;
49217;SDS011;35045;51.194;7.268;2023-05-10T12:31:20;17.95;;;12.63;;
49217;SDS011;35045;51.194;7.268;2023-05-10T12:33:46;22.45;;;14.07;;
49217;SDS011;35045;51.194;7.268;2023-05-10T12:36:15;20.30;;;14.13;;
49217;SDS011;35045;51.194;7.268;2023-05-10T12:38:43;21.38;;;13.98;;
49217;SDS011;35045;51.194;7.268;2023-05-10T12:41:14;20.65;;;14.32;;
49217;SDS011;35045;51.194;7.268;2023-05-10T12:43:41;20.33;;;13.65;;
49217;SDS011;35045;51.194;7.268;2023-05-10T12:46:09;19.20;;;13.65;;
49217;SDS011;35045;51.194;7.268;2023-05-10T12:48:36;19.45;;;13.95;;
49217;SDS011;35045;51.194;7.268;2023-05-10T12:51:04;19.63;;;14.10;;
49217;SDS011;35045;51.194;7.268;2023-05-10T12:53:30;19.50;;;13.02;;
49217;SDS011;35045;51.194;7.268;2023-05-10T12:55:57;20.02;;;14.02;;
49217;SDS011;35045;51.194;7.268;2023-05-10T12:58:23;19.63;;;13.25;;
49217;SDS011;35045;51.194;7.268;2023-05-10T13:00:57;20.13;;;15.00;;
49217;SDS011;35045;51.194;7.268;2023-05-10T13:03:24;21.15;;;14.43;;
49217;SDS011;35045;51.194;7.268;2023-05-10T13:05:51;22.30;;;14.35;;
49217;SDS011;35045;51.194;7.268;2023-05-10T13:08:17;19.40;;;13.68;;
49217;SDS011;35045;51.194;7.268;2023-05-10T13:10:43;28.00;;;15.10;;
49217;SDS011;35045;51.194;7.268;2023-05-10T13:13:09;21.13;;;14.60;;
49217;SDS011;35045;51.194;7.268;2023-05-10T13:15:36;21.30;;;14.90;;
49217;SDS011;35045;51.194;7.268;2023-05-10T13:18:02;23.65;;;15.13;;
49217;SDS011;35045;51.194;7.268;2023-05-10T13:20:28;19.58;;;14.30;;
49217;SDS011;35045;51.194;7.268;2023-05-10T13:22:54;18.40;;;13.57;;
49217;SDS011;35045;51.194;7.268;2023-05-10T13:25:21;20.73;;;14.68;;
49217;SDS011;35045;51.194;7.268;2023-05-10T13:27:47;22.25;;;14.45;;
49217;SDS011;35045;51.194;7.268;2023-05-10T13:30:13;22.67;;;14.50;;
49217;SDS011;35045;51.194;7.268;2023-05-10T13:32:39;22.65;;;14.63;;
49217;SDS011;35045;51.194;7.268;2023-05-10T13:35:05;20.38;;;13.88;;
49217;SDS011;35045;51.194;7.268;2023-05-10T13:37:32;19.20;;;14.13;;
49217;SDS011;35045;51.194;7.268;2023-05-10T13:40:01;19.45;;;14.45;;
49217;SDS011;35045;51.194;7.268;2023-05-10T13:42:27;20.60;;;14.00;;
49217;SDS011;35045;51.194;7.268;2023-05-10T13:44:54;21.25;;;14.32;;
49217;SDS011;35045;51.194;7.268;2023-05-10T13:47:20;20.77;;;14.77;;
49217;SDS011;35045;51.194;7.268;2023-05-10T13:49:47;19.13;;;13.75;;
49217;SDS011;35045;51.194;7.268;2023-05-10T13:52:13;18.60;;;13.15;;
49217;SDS011;35045;51.194;7.268;2023-05-10T13:54:39;18.27;;;13.48;;
49217;SDS011;35045;51.194;7.268;2023-05-10T13:57:05;21.73;;;14.60;;
49217;SDS011;35045;51.194;7.268;2023-05-10T13:59:32;22.08;;;13.77;;
49217;SDS011;35045;51.194;7.268;2023-05-10T14:01:58;19.67;;;14.38;;
49217;SDS011;35045;51.194;7.268;2023-05-10T14:04:25;25.20;;;14.38;;
49217;SDS011;35045;51.194;7.268;2023-05-10T14:06:51;18.90;;;13.75;;
49217;SDS011;35045;51.194;7.268;2023-05-10T14:09:18;22.70;;;13.98;;
49217;SDS011;35045;51.194;7.268;2023-05-10T14:11:45;18.95;;;13.68;;
49217;SDS011;35045;51.194;7.268;2023-05-10T14:14:11;18.33;;;13.48;;
49217;SDS011;35045;51.194;7.268;2023-05-10T14:16:42;17.35;;;12.63;;
49217;SDS011;35045;51.194;7.268;2023-05-10T14:19:09;16.38;;;12.15;;
49217;SDS011;35045;51.194;7.268;2023-05-10T14:21:35;16.70;;;12.80;;
49217;SDS011;35045;51.194;7.268;2023-05-10T14:24:02;18.95;;;12.48;;
49217;SDS011;35045;51.194;7.268;2023-05-10T14:26:28;17.25;;;11.73;;
49217;SDS011;35045;51.194;7.268;2023-05-10T14:28:54;18.75;;;12.35;;
49217;SDS011;35045;51.194;7.268;2023-05-10T14:31:20;15.55;;;10.93;;
49217;SDS011;35045;51.194;7.268;2023-05-10T14:33:48;16.40;;;11.80;;
49217;SDS011;35045;51.194;7.268;2023-05-10T14:36:14;16.67;;;11.30;;
49217;SDS011;35045;51.194;7.268;2023-05-10T14:38:41;19.92;;;11.98;;
49217;SDS011;35045;51.194;7.268;2023-05-10T14:41:07;16.42;;;10.90;;
49217;SDS011;35045;51.194;7.268;2023-05-10T14:43:34;14.45;;;10.07;;
49217;SDS011;35045;51.194;7.268;2023-05-10T14:46:01;15.95;;;10.55;;
49217;SDS011;35045;51.194;7.268;2023-05-10T14:48:28;14.48;;;10.05;;
49217;SDS011;35045;51.194;7.268;2023-05-10T14:50:54;15.15;;;10.10;;
49217;SDS011;35045;51.194;7.268;2023-05-10T14:53:20;12.82;;;9.23;;
49217;SDS011;35045;51.194;7.268;2023-05-10T14:55:46;14.10;;;9.90;;
49217;SDS011;35045;51.194;7.268;2023-05-10T14:58:12;12.57;;;8.60;;
49217;SDS011;35045;51.194;7.268;2023-05-10T15:00:38;13.43;;;9.13;;